createdAt,value
2022-10-23T00:01:06.252Z,77
2022-10-23T00:03:36.640Z,76
2022-10-23T00:06:07.811Z,76
2022-10-23T00:08:38.289Z,77
2022-10-23T00:11:10.377Z,76
2022-10-23T00:13:41.324Z,77
2022-10-23T00:16:12.382Z,77
2022-10-23T00:18:43.426Z,77
2022-10-23T00:21:14.046Z,77
2022-10-23T00:23:44.538Z,77
2022-10-23T00:26:14.979Z,77
2022-10-23T00:28:45.650Z,77
2022-10-23T00:31:15.934Z,77
2022-10-23T00:33:46.918Z,77
2022-10-23T00:36:18.127Z,77
2022-10-23T00:38:48.919Z,77
2022-10-23T00:41:20.082Z,77
2022-10-23T00:43:51.245Z,77
2022-10-23T00:46:22.661Z,77
2022-10-23T00:48:53.155Z,77
2022-10-23T00:51:24.573Z,78
2022-10-23T00:54:00.922Z,77
2022-10-23T00:56:26.955Z,78
2022-10-23T00:58:58.221Z,78
2022-10-23T01:01:28.630Z,78
2022-10-23T01:03:59.591Z,77
2022-10-23T01:06:30.842Z,77
2022-10-23T01:09:01.550Z,77
2022-10-23T01:11:32.065Z,77
2022-10-23T01:14:07.132Z,77
2022-10-23T01:16:37.641Z,77
2022-10-23T01:19:08.844Z,77
2022-10-23T01:21:39.536Z,77
2022-10-23T01:24:10.372Z,77
2022-10-23T01:26:41.854Z,77
2022-10-23T01:29:13.533Z,77
2022-10-23T01:31:44.520Z,77
2022-10-23T01:34:15.083Z,77
2022-10-23T01:36:45.988Z,77
2022-10-23T01:39:17.620Z,77
2022-10-23T01:41:48.329Z,77
2022-10-23T01:44:19.511Z,77
2022-10-23T01:46:50.348Z,77
2022-10-23T01:49:21.477Z,77
2022-10-23T01:51:52.258Z,77
2022-10-23T01:54:22.951Z,77
2022-10-23T01:56:54.176Z,78
2022-10-23T01:59:25.347Z,77
2022-10-23T02:01:56.421Z,78
2022-10-23T02:04:27.382Z,77
2022-10-23T02:06:58.271Z,78
2022-10-23T02:09:29.608Z,78
2022-10-23T02:12:01.310Z,78
2022-10-23T02:14:32.409Z,78
2022-10-23T02:17:03.813Z,78
2022-10-23T02:19:36.557Z,78
2022-10-23T02:22:07.585Z,78
2022-10-23T02:24:38.979Z,78
2022-10-23T02:27:09.655Z,78
2022-10-23T02:29:40.799Z,77
2022-10-23T02:32:12.023Z,77
2022-10-23T02:34:45.582Z,77
2022-10-23T02:37:18.456Z,77
2022-10-23T02:39:50.183Z,77
2022-10-23T02:42:20.657Z,77
2022-10-23T02:44:51.797Z,78
2022-10-23T02:47:22.660Z,78
2022-10-23T02:49:53.430Z,78
2022-10-23T02:52:24.611Z,78
2022-10-23T02:54:56.701Z,78
2022-10-23T02:57:28.294Z,78
2022-10-23T02:59:58.884Z,78
2022-10-23T03:04:59.943Z,77
2022-10-23T03:07:31.770Z,77
2022-10-23T03:10:02.508Z,77
2022-10-23T03:12:33.469Z,77
2022-10-23T03:15:03.942Z,77
2022-10-23T03:17:34.971Z,77
2022-10-23T03:20:06.435Z,77
2022-10-23T03:22:37.580Z,77
2022-10-23T03:25:08.468Z,77
2022-10-23T03:27:39.101Z,77
2022-10-23T03:30:09.955Z,77
2022-10-23T03:32:42.345Z,77
2022-10-23T03:35:14.532Z,77
2022-10-23T03:37:45.985Z,77
2022-10-23T03:40:16.871Z,77
2022-10-23T03:42:48.760Z,77
2022-10-23T03:45:20.703Z,77
2022-10-23T03:47:51.822Z,77
2022-10-23T03:50:23.025Z,77
2022-10-23T03:52:54.893Z,78
2022-10-23T03:55:26.218Z,77
2022-10-23T03:57:57.118Z,77
2022-10-23T04:00:28.309Z,77
2022-10-23T04:02:59.750Z,77
2022-10-23T04:05:30.562Z,77
2022-10-23T04:08:01.887Z,78
2022-10-23T04:10:32.766Z,78
2022-10-23T04:13:03.725Z,78
2022-10-23T04:15:34.888Z,78
2022-10-23T04:18:05.805Z,78
2022-10-23T04:20:36.906Z,78
2022-10-23T04:23:07.793Z,79
2022-10-23T04:25:38.692Z,78
2022-10-23T04:28:09.766Z,78
2022-10-23T04:30:40.686Z,77
2022-10-23T04:33:11.462Z,77
2022-10-23T04:35:42.237Z,77
2022-10-23T04:38:13.519Z,77
2022-10-23T04:40:44.326Z,77
2022-10-23T04:43:15.310Z,77
2022-10-23T04:45:46.168Z,77
2022-10-23T04:48:17.253Z,77
2022-10-23T04:50:49.229Z,77
2022-10-23T04:53:20.417Z,77
2022-10-23T04:55:52.393Z,77
2022-10-23T04:58:23.565Z,77
2022-10-23T05:00:54.632Z,77
2022-10-23T05:03:25.107Z,77
2022-10-23T05:05:56.192Z,77
2022-10-23T05:08:27.403Z,77
2022-10-23T05:10:58.353Z,77
2022-10-23T05:13:29.451Z,78
2022-10-23T05:16:00.160Z,77
2022-10-23T05:18:31.677Z,77
2022-10-23T05:21:03.396Z,77
2022-10-23T05:23:34.149Z,76
2022-10-23T05:26:04.441Z,76
2022-10-23T05:28:35.309Z,75
2022-10-23T05:31:06.832Z,75
2022-10-23T05:33:38.962Z,75
2022-10-23T05:36:09.691Z,76
2022-10-23T05:38:40.938Z,76
2022-10-23T05:41:13.340Z,76
2022-10-23T05:43:45.321Z,76
2022-10-23T05:46:17.184Z,76
2022-10-23T05:48:48.301Z,76
2022-10-23T05:51:19.003Z,77
2022-10-23T05:53:49.452Z,77
2022-10-23T05:56:20.402Z,76
2022-10-23T05:58:51.037Z,76
2022-10-23T06:01:22.273Z,76
2022-10-23T06:03:53.553Z,76
2022-10-23T06:06:24.591Z,77
2022-10-23T06:08:55.045Z,77
2022-10-23T06:11:25.339Z,77
2022-10-23T06:16:27.047Z,76
2022-10-23T06:18:58.490Z,75
2022-10-23T06:21:29.263Z,75
2022-10-23T06:24:00.215Z,75
2022-10-23T06:26:30.100Z,75
2022-10-23T06:29:02.162Z,75
2022-10-23T06:31:32.743Z,75
2022-10-23T06:34:04.766Z,74
2022-10-23T06:36:37.486Z,74
2022-10-23T06:39:08.706Z,74
2022-10-23T06:41:39.777Z,74
2022-10-23T06:44:12.900Z,73
2022-10-23T06:46:43.907Z,73
2022-10-23T06:49:16.301Z,73
2022-10-23T06:51:47.473Z,73
2022-10-23T06:54:18.658Z,73
2022-10-23T06:56:49.468Z,74
2022-10-23T06:59:20.769Z,74
2022-10-23T07:01:51.346Z,74
2022-10-23T07:04:22.044Z,74
2022-10-23T07:06:52.852Z,74
2022-10-23T07:09:23.968Z,74
2022-10-23T07:11:54.920Z,74
2022-10-23T07:14:27.155Z,74
2022-10-23T07:16:57.658Z,75
2022-10-23T07:19:26.571Z,75
2022-10-23T07:21:57.008Z,74
2022-10-23T07:24:28.488Z,75
2022-10-23T07:26:59.485Z,75
2022-10-23T07:29:30.406Z,74
2022-10-23T07:32:03.488Z,74
2022-10-23T07:34:36.610Z,74
2022-10-23T07:37:07.773Z,74
2022-10-23T07:39:38.306Z,74
2022-10-23T07:42:09.118Z,74
2022-10-23T07:44:39.829Z,74
2022-10-23T07:47:10.771Z,75
2022-10-23T07:49:41.301Z,75
2022-10-23T07:52:12.138Z,74
2022-10-23T07:54:42.733Z,74
2022-10-23T07:57:13.622Z,74
2022-10-23T07:59:45.212Z,74
2022-10-23T08:02:16.430Z,74
2022-10-23T08:04:47.233Z,74
2022-10-23T08:07:19.313Z,74
2022-10-23T08:09:49.957Z,74
2022-10-23T08:12:21.491Z,73
2022-10-23T08:14:52.282Z,73
2022-10-23T08:17:25.065Z,73
2022-10-23T08:19:54.513Z,73
2022-10-23T08:22:25.228Z,73
2022-10-23T08:24:54.668Z,72
2022-10-23T08:27:25.459Z,72
2022-10-23T08:29:56.309Z,72
2022-10-23T08:32:27.181Z,72
2022-10-23T08:34:59.231Z,72
2022-10-23T08:37:33.548Z,71
2022-10-23T08:40:05.562Z,71
2022-10-23T08:42:36.390Z,71
2022-10-23T08:45:05.947Z,70
2022-10-23T08:47:35.146Z,70
2022-10-23T08:50:07.163Z,70
2022-10-23T08:52:38.216Z,70
2022-10-23T08:55:09.525Z,69
2022-10-23T08:57:41.479Z,69
2022-10-23T09:00:12.381Z,69
2022-10-23T09:02:44.634Z,69
2022-10-23T09:05:18.266Z,69
2022-10-23T09:07:50.466Z,68
2022-10-23T09:10:22.716Z,68
2022-10-23T09:12:54.752Z,68
2022-10-23T09:15:26.961Z,68
2022-10-23T09:17:58.850Z,68
2022-10-23T09:20:30.407Z,67
2022-10-23T09:23:01.181Z,67
2022-10-23T09:25:32.045Z,66
2022-10-23T09:28:05.450Z,66
2022-10-23T09:30:35.869Z,65
2022-10-23T09:33:08.680Z,66
2022-10-23T09:35:40.201Z,65
2022-10-23T09:38:11.710Z,66
2022-10-23T09:40:43.933Z,65
2022-10-23T09:43:13.707Z,65
2022-10-23T09:45:45.175Z,66
2022-10-23T09:48:15.982Z,65
2022-10-23T09:50:47.070Z,64
2022-10-23T09:53:18.137Z,63
2022-10-23T09:55:47.975Z,63
2022-10-23T09:58:19.002Z,62
2022-10-23T10:00:52.203Z,62
2022-10-23T10:03:21.248Z,61
2022-10-23T10:05:52.381Z,61
2022-10-23T10:08:26.000Z,62
2022-10-23T10:10:57.086Z,61
2022-10-23T10:13:27.629Z,61
2022-10-23T10:15:59.960Z,61
2022-10-23T10:18:31.427Z,61
2022-10-23T10:21:02.729Z,60
2022-10-23T10:23:33.994Z,59
2022-10-23T10:26:05.434Z,59
2022-10-23T10:28:36.567Z,60
2022-10-23T10:31:07.484Z,59
2022-10-23T10:33:39.265Z,59
2022-10-23T10:36:10.744Z,60
2022-10-23T10:38:41.496Z,60
2022-10-23T10:41:12.325Z,59
2022-10-23T10:43:43.819Z,59
2022-10-23T10:48:46.420Z,59
2022-10-23T10:51:17.400Z,57
2022-10-23T10:53:48.808Z,58
2022-10-23T10:56:20.787Z,58
2022-10-23T10:58:51.345Z,58
2022-10-23T11:01:22.592Z,57
2022-10-23T11:03:53.830Z,57
2022-10-23T11:06:24.395Z,57
2022-10-23T11:09:03.917Z,57
2022-10-23T11:11:26.613Z,56
2022-10-23T11:13:57.390Z,56
2022-10-23T11:16:29.048Z,56
2022-10-23T11:19:02.178Z,56
2022-10-23T11:21:32.882Z,56
2022-10-23T11:24:03.560Z,56
2022-10-23T11:26:34.567Z,56
2022-10-23T11:29:05.619Z,55
2022-10-23T11:31:36.863Z,54
2022-10-23T11:34:07.804Z,54
2022-10-23T11:36:38.547Z,54
2022-10-23T11:39:09.859Z,54
2022-10-23T11:41:41.069Z,55
2022-10-23T11:44:10.568Z,55
2022-10-23T11:46:41.780Z,54
2022-10-23T11:49:13.519Z,53
2022-10-23T11:51:43.573Z,54
2022-10-23T11:54:15.160Z,53
2022-10-23T11:56:45.940Z,53
2022-10-23T11:59:16.231Z,53
2022-10-23T12:01:45.856Z,53
2022-10-23T12:04:16.972Z,53
2022-10-23T12:06:47.295Z,52
2022-10-23T12:09:18.452Z,53
2022-10-23T12:11:49.362Z,53
2022-10-23T12:14:20.680Z,51
2022-10-23T12:16:51.626Z,51
2022-10-23T12:19:22.381Z,51
2022-10-23T12:21:54.174Z,53
2022-10-23T12:24:25.181Z,53
2022-10-23T12:26:56.212Z,53
2022-10-23T12:29:27.025Z,52
2022-10-23T12:31:58.718Z,52
2022-10-23T12:34:30.267Z,49
2022-10-23T12:37:01.508Z,49
2022-10-23T12:39:32.375Z,53
2022-10-23T12:42:04.669Z,52
2022-10-23T12:44:35.916Z,52
2022-10-23T12:47:06.393Z,51
2022-10-23T12:49:38.160Z,50
2022-10-23T12:52:07.637Z,52
2022-10-23T12:54:38.541Z,51
2022-10-23T12:57:09.436Z,48
2022-10-23T12:59:40.808Z,50
2022-10-23T13:02:12.221Z,50
2022-10-23T13:04:43.871Z,48
2022-10-23T13:07:14.749Z,48
2022-10-23T13:09:45.292Z,49
2022-10-23T13:12:16.532Z,48
2022-10-23T13:14:47.584Z,49
2022-10-23T13:17:18.095Z,47
2022-10-23T13:19:49.056Z,49
2022-10-23T13:22:20.387Z,50
2022-10-23T13:24:51.837Z,49
2022-10-23T13:27:24.690Z,50
2022-10-23T13:29:55.472Z,51
2022-10-23T13:32:26.638Z,50
2022-10-23T13:35:04.321Z,49
2022-10-23T13:37:27.373Z,51
2022-10-23T13:39:59.214Z,50
2022-10-23T13:42:30.505Z,50
2022-10-23T13:45:01.541Z,51
2022-10-23T13:47:32.561Z,51
2022-10-23T13:50:04.670Z,50
2022-10-23T13:52:36.671Z,51
2022-10-23T13:55:08.368Z,51
2022-10-23T13:57:39.924Z,51
2022-10-23T14:00:11.350Z,51
2022-10-23T14:02:43.739Z,50
2022-10-23T14:05:15.599Z,50
2022-10-23T14:07:47.273Z,49
2022-10-23T14:10:16.802Z,50
2022-10-23T14:12:48.005Z,50
2022-10-23T14:15:19.711Z,50
2022-10-23T14:17:53.269Z,50
2022-10-23T14:20:24.380Z,50
2022-10-23T14:22:53.676Z,51
2022-10-23T14:25:25.049Z,51
2022-10-23T14:30:26.904Z,51
2022-10-23T14:32:58.584Z,51
2022-10-23T14:35:29.613Z,51
2022-10-23T14:38:00.801Z,51
2022-10-23T14:40:32.513Z,51
2022-10-23T14:43:04.496Z,51
2022-10-23T14:45:35.637Z,51
2022-10-23T14:48:07.177Z,51
2022-10-23T14:50:38.402Z,50
2022-10-23T14:53:09.750Z,51
2022-10-23T14:55:41.021Z,51
2022-10-23T14:58:12.261Z,52
2022-10-23T15:00:46.722Z,53
2022-10-23T15:03:17.860Z,53
2022-10-23T15:05:49.222Z,54
2022-10-23T15:08:20.555Z,53
2022-10-23T15:10:52.744Z,54
2022-10-23T15:13:23.667Z,54
2022-10-23T15:15:55.567Z,55
2022-10-23T15:18:28.803Z,56
2022-10-23T15:21:01.188Z,56
2022-10-23T15:23:32.646Z,56
2022-10-23T15:26:03.781Z,56
2022-10-23T15:28:36.130Z,55
2022-10-23T15:31:07.876Z,56
2022-10-23T15:33:39.152Z,56
2022-10-23T15:36:10.942Z,57
2022-10-23T15:38:42.701Z,58
2022-10-23T15:41:14.419Z,58
2022-10-23T15:43:45.619Z,58
2022-10-23T15:46:16.567Z,59
2022-10-23T15:48:47.902Z,58
2022-10-23T15:51:19.542Z,58
2022-10-23T15:53:50.660Z,58
2022-10-23T15:56:22.061Z,58
2022-10-23T15:58:52.518Z,58
2022-10-23T16:01:24.918Z,58
2022-10-23T16:03:56.207Z,59
2022-10-23T16:06:27.378Z,58
2022-10-23T16:08:59.935Z,59
2022-10-23T16:11:33.992Z,59
2022-10-23T16:14:04.915Z,59
2022-10-23T16:16:37.195Z,59
2022-10-23T16:19:08.254Z,60
2022-10-23T16:21:39.584Z,60
2022-10-23T16:24:11.469Z,60
2022-10-23T16:26:43.156Z,60
2022-10-23T16:29:15.164Z,60
2022-10-23T16:31:46.196Z,60
2022-10-23T16:34:17.304Z,60
2022-10-23T16:36:50.424Z,60
2022-10-23T16:39:22.545Z,60
2022-10-23T16:41:53.958Z,60
2022-10-23T16:44:25.352Z,60
2022-10-23T16:46:56.980Z,61
2022-10-23T16:49:28.674Z,61
2022-10-23T16:52:00.741Z,61
2022-10-23T16:54:33.384Z,61
2022-10-23T16:57:05.094Z,61
2022-10-23T16:59:36.655Z,61
2022-10-23T17:02:08.441Z,61
2022-10-23T17:04:39.494Z,61
2022-10-23T17:07:11.140Z,62
2022-10-23T17:09:42.211Z,62
2022-10-23T17:12:14.843Z,62
2022-10-23T17:14:47.397Z,62
2022-10-23T17:17:19.105Z,62
2022-10-23T17:19:53.382Z,62
2022-10-23T17:22:25.322Z,62
2022-10-23T17:24:56.380Z,62
2022-10-23T17:27:29.718Z,62
2022-10-23T17:30:00.968Z,61
2022-10-23T17:32:32.768Z,61
2022-10-23T17:35:04.358Z,61
2022-10-23T17:37:37.920Z,62
2022-10-23T17:40:09.710Z,62
2022-10-23T17:42:41.661Z,62
2022-10-23T17:45:13.243Z,62
2022-10-23T17:47:44.433Z,62
2022-10-23T17:50:15.892Z,62
2022-10-23T17:52:48.093Z,63
2022-10-23T17:55:20.130Z,63
2022-10-23T17:57:51.178Z,63
2022-10-23T18:00:22.845Z,63
2022-10-23T18:02:55.483Z,63
2022-10-23T18:05:26.974Z,63
2022-10-23T18:07:58.661Z,63
2022-10-23T18:10:30.092Z,63
2022-10-23T18:13:06.263Z,63
2022-10-23T18:15:37.615Z,63
2022-10-23T18:18:08.765Z,63
2022-10-23T18:20:41.129Z,63
2022-10-23T18:23:15.679Z,63
2022-10-23T18:25:46.874Z,63
2022-10-23T18:28:18.083Z,64
2022-10-23T18:30:51.179Z,64
2022-10-23T18:33:21.531Z,64
2022-10-23T18:35:52.681Z,64
2022-10-23T18:38:24.387Z,64
2022-10-23T18:40:56.028Z,64
2022-10-23T18:43:43.071Z,65
2022-10-23T18:46:00.710Z,64
2022-10-23T18:48:33.086Z,64
2022-10-23T18:51:04.736Z,64
2022-10-23T18:53:35.726Z,64
2022-10-23T18:56:07.242Z,64
2022-10-23T18:58:39.672Z,64
2022-10-23T19:01:16.215Z,64
2022-10-23T19:03:47.968Z,64
2022-10-23T19:06:20.290Z,64
2022-10-23T19:08:52.290Z,64
2022-10-23T19:11:24.466Z,64
2022-10-23T19:13:56.739Z,64
2022-10-23T19:16:30.659Z,65
2022-10-23T19:19:00.425Z,64
2022-10-23T19:21:32.434Z,65
2022-10-23T19:24:05.437Z,65
2022-10-23T19:26:37.130Z,65
2022-10-23T19:29:09.483Z,65
2022-10-23T19:31:40.829Z,65
2022-10-23T19:34:13.737Z,65
2022-10-23T19:36:45.543Z,65
2022-10-23T19:39:16.574Z,65
2022-10-23T19:41:47.527Z,65
2022-10-23T19:44:18.805Z,65
2022-10-23T19:46:50.036Z,65
2022-10-23T19:49:21.457Z,65
2022-10-23T19:51:53.599Z,65
2022-10-23T19:54:25.902Z,65
2022-10-23T19:56:58.454Z,65
2022-10-23T19:59:30.004Z,65
2022-10-23T20:02:01.585Z,65
2022-10-23T20:04:32.541Z,65
2022-10-23T20:07:05.459Z,65
2022-10-23T20:09:37.011Z,65
2022-10-23T20:12:09.958Z,65
2022-10-23T20:14:41.085Z,65
2022-10-23T20:17:12.468Z,65
2022-10-23T20:19:45.076Z,65
2022-10-23T20:22:16.565Z,65
2022-10-23T20:24:47.620Z,65
2022-10-23T20:27:20.030Z,66
2022-10-23T20:29:51.029Z,65
2022-10-23T20:32:22.407Z,65
2022-10-23T20:34:54.350Z,65
2022-10-23T20:37:25.440Z,64
2022-10-23T20:39:56.959Z,65
2022-10-23T20:42:28.015Z,65
2022-10-23T20:45:00.784Z,65
2022-10-23T20:47:33.534Z,64
2022-10-23T20:50:04.540Z,64
2022-10-23T20:52:34.441Z,64
2022-10-23T20:55:05.707Z,64
2022-10-23T20:57:37.176Z,64
2022-10-23T21:00:10.677Z,64
2022-10-23T21:02:45.958Z,64
2022-10-23T21:05:15.885Z,64
2022-10-23T21:07:47.563Z,65
2022-10-23T21:10:18.447Z,65
2022-10-23T21:12:49.374Z,65
2022-10-23T21:15:20.760Z,64
2022-10-23T21:17:52.986Z,65
2022-10-23T21:20:24.292Z,65
2022-10-23T21:22:55.983Z,65
2022-10-23T21:25:28.968Z,65
2022-10-23T21:28:01.859Z,65
2022-10-23T21:30:37.158Z,65
2022-10-23T21:33:09.692Z,65
2022-10-23T21:35:47.351Z,65
2022-10-23T21:38:14.436Z,65
2022-10-23T21:40:45.761Z,65
2022-10-23T21:43:17.008Z,65
2022-10-23T21:45:46.983Z,65
2022-10-23T21:48:18.544Z,65
2022-10-23T21:53:22.767Z,65
2022-10-23T21:55:54.252Z,65
2022-10-23T21:58:25.307Z,65
2022-10-23T22:01:00.043Z,65
2022-10-23T22:03:32.987Z,65
2022-10-23T22:06:06.292Z,65
2022-10-23T22:08:37.175Z,65
2022-10-23T22:11:07.080Z,65
2022-10-23T22:13:37.900Z,65
2022-10-23T22:16:08.989Z,65
2022-10-23T22:18:39.823Z,65
2022-10-23T22:21:10.860Z,65
2022-10-23T22:23:41.551Z,65
2022-10-23T22:26:12.191Z,65
2022-10-23T22:28:43.789Z,65
2022-10-23T22:31:15.438Z,65
2022-10-23T22:33:46.054Z,65
2022-10-23T22:36:16.492Z,65
2022-10-23T22:38:47.313Z,66
2022-10-23T22:41:18.223Z,66
2022-10-23T22:43:49.395Z,66
2022-10-23T22:46:20.147Z,66
2022-10-23T22:48:50.763Z,66
2022-10-23T22:51:22.474Z,66
2022-10-23T22:53:53.474Z,66
2022-10-23T22:56:25.583Z,66
2022-10-23T22:58:56.753Z,66
2022-10-23T23:01:31.574Z,66
2022-10-23T23:04:08.592Z,66
2022-10-23T23:06:33.426Z,66
2022-10-23T23:09:04.787Z,66
2022-10-23T23:11:40.823Z,66
2022-10-23T23:16:36.686Z,66
2022-10-23T23:19:08.213Z,66
2022-10-23T23:21:38.907Z,66
2022-10-23T23:24:09.326Z,66
2022-10-23T23:26:40.328Z,66
2022-10-23T23:29:12.142Z,67
2022-10-23T23:31:43.601Z,66
2022-10-23T23:34:14.663Z,67
2022-10-23T23:36:46.974Z,67
2022-10-23T23:39:18.054Z,67
2022-10-23T23:41:48.533Z,67
2022-10-23T23:44:19.561Z,67
2022-10-23T23:46:50.854Z,67
2022-10-23T23:49:21.546Z,67
2022-10-23T23:51:52.108Z,67
2022-10-23T23:54:23.069Z,68
2022-10-23T23:56:54.068Z,68
2022-10-23T23:59:26.280Z,68
